createdAt,value
2019-04-07T00:00:43.650Z,9.28
2019-04-07T00:03:10.704Z,9.25
2019-04-07T00:05:37.811Z,9.25
2019-04-07T00:08:04.609Z,9.24
2019-04-07T00:10:31.576Z,9.21
2019-04-07T00:12:58.270Z,9.16
2019-04-07T00:15:25.821Z,9.17
2019-04-07T00:17:53.203Z,9.11
2019-04-07T00:20:19.932Z,9.12
2019-04-07T00:22:46.732Z,9.12
2019-04-07T00:25:13.627Z,9.10
2019-04-07T00:27:40.488Z,9.07
2019-04-07T00:30:07.634Z,9.08
2019-04-07T00:32:35.039Z,9.07
2019-04-07T00:35:02.114Z,9.09
2019-04-07T00:37:31.155Z,9.06
2019-04-07T00:39:57.978Z,9.09
2019-04-07T00:42:24.805Z,9.10
2019-04-07T00:44:51.518Z,9.07
2019-04-07T00:47:18.575Z,9.07
2019-04-07T00:49:45.483Z,9.02
2019-04-07T00:52:13.994Z,9.03
2019-04-07T00:54:40.923Z,9.04
2019-04-07T00:57:07.538Z,8.97
2019-04-07T00:59:34.209Z,9.00
2019-04-07T01:02:02.575Z,8.95
2019-04-07T01:04:29.318Z,8.96
2019-04-07T01:06:56.078Z,8.94
2019-04-07T01:09:23.326Z,8.88
2019-04-07T01:11:50.740Z,8.85
2019-04-07T01:14:18.191Z,8.88
2019-04-07T01:16:45.632Z,8.79
2019-04-07T01:19:12.454Z,8.75
2019-04-07T01:21:39.197Z,8.70
2019-04-07T01:24:06.524Z,8.58
2019-04-07T01:26:33.972Z,8.61
2019-04-07T01:29:00.613Z,8.51
2019-04-07T01:31:27.588Z,8.49
2019-04-07T01:33:54.505Z,8.50
2019-04-07T01:36:21.611Z,8.54
2019-04-07T01:38:48.973Z,8.51
2019-04-07T01:41:22.868Z,8.43
2019-04-07T01:44:12.146Z,8.44
2019-04-07T01:46:45.915Z,8.46
2019-04-07T01:49:19.412Z,8.42
2019-04-07T01:52:05.879Z,8.40
2019-04-07T01:54:56.823Z,8.37
2019-04-07T01:57:31.037Z,8.40
2019-04-07T02:00:26.557Z,8.40
2019-04-07T02:03:18.789Z,8.44
2019-04-07T02:06:04.682Z,8.45
2019-04-07T02:08:54.987Z,8.32
2019-04-07T02:11:40.335Z,8.25
2019-04-07T02:14:25.530Z,8.21
2019-04-07T02:17:10.806Z,8.13
2019-04-07T02:19:56.001Z,8.10
2019-04-07T02:22:57.437Z,7.99
2019-04-07T02:25:42.807Z,8.03
2019-04-07T02:28:19.713Z,7.98
2019-04-07T02:30:56.145Z,8.07
2019-04-07T02:33:52.402Z,7.99
2019-04-07T02:36:54.085Z,8.01
2019-04-07T02:39:36.877Z,8.14
2019-04-07T02:42:39.469Z,8.02
2019-04-07T02:45:32.413Z,7.95
2019-04-07T02:48:18.091Z,7.88
2019-04-07T02:50:53.555Z,7.90
2019-04-07T02:53:41.016Z,7.88
2019-04-07T02:56:23.746Z,7.84
2019-04-07T02:59:10.538Z,7.81
2019-04-07T03:01:52.805Z,7.88
2019-04-07T03:04:51.600Z,7.81
2019-04-07T03:07:32.496Z,7.71
2019-04-07T03:10:17.086Z,7.64
2019-04-07T03:12:58.803Z,7.59
2019-04-07T03:15:39.333Z,7.63
2019-04-07T03:18:26.925Z,7.62
2019-04-07T03:21:01.226Z,7.67
2019-04-07T03:23:47.795Z,7.51
2019-04-07T03:26:41.207Z,7.47
2019-04-07T03:29:27.550Z,7.45
2019-04-07T03:32:06.216Z,7.37
2019-04-07T03:34:48.993Z,7.40
2019-04-07T03:37:42.991Z,7.37
2019-04-07T03:40:18.330Z,7.34
2019-04-07T03:42:55.377Z,7.37
2019-04-07T03:45:57.286Z,7.33
2019-04-07T03:48:29.091Z,7.31
2019-04-07T03:51:11.037Z,7.34
2019-04-07T03:54:07.206Z,7.28
2019-04-07T03:56:52.987Z,7.26
2019-04-07T03:59:27.527Z,7.20
2019-04-07T04:02:20.173Z,7.20
2019-04-07T04:05:12.850Z,7.22
2019-04-07T04:08:00.978Z,7.16
2019-04-07T04:10:36.700Z,7.16
2019-04-07T04:13:32.717Z,7.13
2019-04-07T04:16:10.432Z,7.14
2019-04-07T04:18:37.636Z,7.19
2019-04-07T04:21:04.538Z,7.15
2019-04-07T04:23:31.703Z,7.13
2019-04-07T04:25:59.018Z,7.11
2019-04-07T04:28:27.363Z,7.09
2019-04-07T04:30:54.204Z,7.08
2019-04-07T04:33:20.923Z,7.11
2019-04-07T04:35:48.129Z,7.09
2019-04-07T04:38:15.804Z,7.06
2019-04-07T04:40:42.877Z,7.04
2019-04-07T04:43:10.372Z,7.08
2019-04-07T04:45:37.137Z,7.05
2019-04-07T04:48:04.465Z,7.09
2019-04-07T04:50:31.829Z,7.04
2019-04-07T04:52:59.787Z,7.03
2019-04-07T04:55:26.639Z,7.02
2019-04-07T04:57:53.348Z,7.01
2019-04-07T05:00:20.342Z,7.05
2019-04-07T05:02:48.315Z,7.06
2019-04-07T05:05:15.102Z,7.11
2019-04-07T05:07:54.036Z,7.08
2019-04-07T05:10:10.566Z,7.09
2019-04-07T05:12:37.920Z,7.09
2019-04-07T05:15:05.459Z,7.10
2019-04-07T05:17:33.570Z,7.08
2019-04-07T05:20:00.309Z,7.11
2019-04-07T05:22:27.021Z,7.11
2019-04-07T05:24:53.981Z,7.17
2019-04-07T05:27:20.749Z,7.21
2019-04-07T05:29:47.850Z,7.20
2019-04-07T05:32:14.614Z,7.18
2019-04-07T05:34:42.395Z,7.21
2019-04-07T05:37:09.876Z,7.22
2019-04-07T05:39:37.209Z,7.26
2019-04-07T05:42:04.657Z,7.34
2019-04-07T05:44:32.193Z,7.39
2019-04-07T05:46:59.054Z,7.39
2019-04-07T05:49:25.820Z,7.44
2019-04-07T05:51:52.497Z,7.51
2019-04-07T05:54:20.744Z,7.50
2019-04-07T05:56:47.694Z,7.71
2019-04-07T05:59:14.791Z,8.00
2019-04-07T06:01:43.474Z,8.02
2019-04-07T06:04:15.483Z,7.94
2019-04-07T06:06:41.770Z,7.89
2019-04-07T06:09:08.324Z,7.96
2019-04-07T06:11:36.154Z,8.02
2019-04-07T06:14:03.211Z,8.23
2019-04-07T06:16:29.958Z,8.18
2019-04-07T06:18:56.638Z,8.38
2019-04-07T06:21:23.489Z,8.45
2019-04-07T06:23:50.786Z,8.40
2019-04-07T06:26:17.716Z,8.34
2019-04-07T06:28:49.009Z,8.34
2019-04-07T06:31:14.010Z,8.43
2019-04-07T06:33:41.480Z,8.51
2019-04-07T06:36:08.366Z,8.61
2019-04-07T06:38:38.232Z,8.63
2019-04-07T06:41:03.810Z,8.68
2019-04-07T06:43:30.488Z,8.73
2019-04-07T06:46:07.220Z,8.80
2019-04-07T06:48:38.003Z,8.86
2019-04-07T06:51:12.181Z,9.01
2019-04-07T06:53:50.459Z,9.16
2019-04-07T06:56:35.564Z,9.25
2019-04-07T06:59:15.305Z,9.38
2019-04-07T07:01:59.183Z,9.38
2019-04-07T07:04:45.827Z,9.57
2019-04-07T07:07:29.068Z,9.57
2019-04-07T07:10:02.515Z,9.73
2019-04-07T07:12:43.875Z,9.82
2019-04-07T07:15:34.545Z,9.85
2019-04-07T07:18:13.265Z,9.95
2019-04-07T07:21:03.777Z,10.15
2019-04-07T07:23:36.426Z,10.30
2019-04-07T07:26:04.210Z,10.30
2019-04-07T07:28:31.565Z,10.52
2019-04-07T07:30:58.887Z,10.57
2019-04-07T07:33:26.965Z,10.66
2019-04-07T07:35:53.847Z,10.66
2019-04-07T07:38:20.514Z,10.81
2019-04-07T07:40:47.789Z,10.99
2019-04-07T07:43:15.960Z,11.07
2019-04-07T07:45:46.212Z,11.17
2019-04-07T07:48:12.033Z,11.25
2019-04-07T07:50:40.423Z,11.31
2019-04-07T07:53:07.954Z,11.41
2019-04-07T07:55:37.564Z,11.56
2019-04-07T07:58:04.065Z,11.70
2019-04-07T08:00:30.990Z,11.77
2019-04-07T08:02:58.248Z,11.83
2019-04-07T08:05:29.826Z,11.92
2019-04-07T08:07:54.087Z,12.05
2019-04-07T08:10:23.248Z,12.21
2019-04-07T08:12:49.706Z,12.41
2019-04-07T08:15:17.066Z,12.63
2019-04-07T08:17:43.888Z,12.70
2019-04-07T08:20:12.028Z,12.75
2019-04-07T08:22:43.167Z,12.89
2019-04-07T08:25:08.704Z,12.99
2019-04-07T08:27:35.590Z,13.11
2019-04-07T08:30:03.816Z,13.24
2019-04-07T08:32:32.208Z,13.31
2019-04-07T08:35:02.114Z,13.48
2019-04-07T08:37:28.582Z,13.58
2019-04-07T08:39:56.976Z,13.76
2019-04-07T08:42:25.180Z,14.16
2019-04-07T08:44:52.035Z,14.19
2019-04-07T08:47:22.167Z,14.38
2019-04-07T08:49:49.490Z,14.70
2019-04-07T08:52:17.443Z,14.86
2019-04-07T08:54:47.763Z,14.93
2019-04-07T08:57:12.727Z,14.98
2019-04-07T08:59:41.886Z,15.08
2019-04-07T09:02:08.675Z,15.25
2019-04-07T09:04:36.635Z,15.52
2019-04-07T09:07:04.384Z,15.78
2019-04-07T09:09:35.991Z,15.86
2019-04-07T09:12:00.586Z,15.90
2019-04-07T09:14:27.313Z,16.05
2019-04-07T09:17:30.874Z,16.31
2019-04-07T09:20:08.479Z,16.55
2019-04-07T09:22:37.946Z,16.71
2019-04-07T09:25:40.524Z,16.86
2019-04-07T09:28:31.497Z,16.90
2019-04-07T09:31:14.683Z,17.07
2019-04-07T09:33:50.306Z,17.36
2019-04-07T09:36:36.383Z,17.53
2019-04-07T09:39:12.381Z,17.64
2019-04-07T09:42:05.724Z,17.77
2019-04-07T09:44:40.206Z,18.00
2019-04-07T09:47:39.128Z,18.12
2019-04-07T09:50:35.125Z,18.21
2019-04-07T09:53:19.656Z,18.18
2019-04-07T09:56:08.823Z,18.21
2019-04-07T09:59:03.595Z,18.33
2019-04-07T10:01:59.447Z,18.38
2019-04-07T10:04:38.544Z,18.53
2019-04-07T10:07:20.593Z,18.70
2019-04-07T10:10:16.053Z,18.81
2019-04-07T10:13:01.949Z,18.92
2019-04-07T10:15:51.303Z,18.92
2019-04-07T10:18:36.896Z,18.99
2019-04-07T10:21:24.082Z,19.03
2019-04-07T10:23:59.731Z,19.12
2019-04-07T10:26:36.098Z,19.34
2019-04-07T10:29:18.688Z,19.40
2019-04-07T10:32:04.590Z,19.44
2019-04-07T10:34:44.971Z,18.93
2019-04-07T10:37:20.024Z,19.65
2019-04-07T10:39:57.322Z,19.71
2019-04-07T10:42:49.150Z,19.73
2019-04-07T10:45:23.467Z,19.81
2019-04-07T10:48:25.911Z,19.58
2019-04-07T10:51:13.082Z,19.76
2019-04-07T10:53:56.130Z,19.86
2019-04-07T10:56:51.758Z,19.88
2019-04-07T10:59:34.242Z,19.96
2019-04-07T11:02:27.535Z,19.97
2019-04-07T11:05:16.962Z,20.31
2019-04-07T11:08:02.468Z,20.15
2019-04-07T11:10:39.911Z,20.24
2019-04-07T11:13:44.385Z,20.37
2019-04-07T11:16:43.149Z,20.30
2019-04-07T11:19:28.600Z,20.40
2019-04-07T11:22:15.039Z,20.28
2019-04-07T11:24:50.160Z,20.27
2019-04-07T11:27:39.277Z,20.25
2019-04-07T11:30:28.881Z,20.60
2019-04-07T11:33:11.751Z,20.50
2019-04-07T11:35:51.017Z,20.61
2019-04-07T11:38:29.943Z,20.65
2019-04-07T11:41:21.599Z,20.58
2019-04-07T11:44:13.826Z,20.86
2019-04-07T11:46:50.888Z,20.95
2019-04-07T11:49:44.724Z,20.89
2019-04-07T11:52:20.091Z,21.10
2019-04-07T11:54:55.555Z,20.95
2019-04-07T11:57:31.998Z,20.92
2019-04-07T12:00:17.282Z,20.90
2019-04-07T12:03:03.874Z,20.89
2019-04-07T12:05:49.564Z,21.15
2019-04-07T12:08:41.892Z,20.84
2019-04-07T12:11:37.245Z,20.94
2019-04-07T12:14:17.979Z,20.99
2019-04-07T12:17:06.921Z,21.41
2019-04-07T12:19:40.767Z,21.26
2019-04-07T12:22:18.310Z,21.45
2019-04-07T12:25:10.567Z,21.40
2019-04-07T12:27:56.738Z,21.46
2019-04-07T12:30:39.153Z,21.48
2019-04-07T12:33:12.232Z,20.98
2019-04-07T12:35:44.906Z,20.99
2019-04-07T12:38:43.231Z,21.14
2019-04-07T12:41:34.716Z,21.32
2019-04-07T12:44:15.926Z,20.96
2019-04-07T12:47:01.694Z,20.42
2019-04-07T12:50:04.090Z,20.47
2019-04-07T12:52:37.703Z,20.98
2019-04-07T12:55:23.012Z,21.66
2019-04-07T12:58:27.772Z,21.89
2019-04-07T13:01:15.237Z,22.00
2019-04-07T13:04:04.666Z,21.59
2019-04-07T13:06:46.938Z,21.06
2019-04-07T13:09:36.590Z,21.52
2019-04-07T13:12:29.639Z,22.35
2019-04-07T13:15:10.993Z,22.65
2019-04-07T13:17:53.391Z,22.55
2019-04-07T13:20:35.506Z,22.69
2019-04-07T13:23:13.611Z,22.99
2019-04-07T13:25:59.013Z,22.86
2019-04-07T13:28:35.911Z,23.35
2019-04-07T13:31:18.071Z,23.61
2019-04-07T13:34:04.207Z,23.34
2019-04-07T13:36:51.661Z,23.60
2019-04-07T13:39:44.954Z,22.98
2019-04-07T13:42:20.821Z,22.73
2019-04-07T13:44:55.993Z,22.86
2019-04-07T13:47:32.012Z,22.83
2019-04-07T13:50:12.805Z,23.14
2019-04-07T13:53:02.947Z,22.61
2019-04-07T13:55:49.864Z,22.43
2019-04-07T13:58:54.434Z,22.67
2019-04-07T14:01:59.332Z,22.79
2019-04-07T14:04:43.524Z,22.57
2019-04-07T14:07:19.592Z,22.58
2019-04-07T14:10:04.396Z,22.75
2019-04-07T14:12:50.095Z,22.79
2019-04-07T14:15:35.909Z,22.77
2019-04-07T14:18:11.224Z,22.52
2019-04-07T14:20:44.111Z,22.19
2019-04-07T14:23:29.803Z,21.96
2019-04-07T14:26:22.289Z,21.91
2019-04-07T14:29:15.261Z,22.30
2019-04-07T14:31:51.999Z,22.69
2019-04-07T14:34:37.265Z,23.20
2019-04-07T14:37:16.328Z,23.57
2019-04-07T14:39:58.761Z,23.60
2019-04-07T14:42:38.203Z,23.37
2019-04-07T14:45:34.139Z,23.05
2019-04-07T14:48:13.410Z,23.36
2019-04-07T14:51:13.236Z,23.38
2019-04-07T14:53:58.711Z,23.36
2019-04-07T14:56:44.173Z,23.38
2019-04-07T14:59:28.423Z,23.43
2019-04-07T15:02:00.024Z,23.49
2019-04-07T15:04:36.724Z,23.63
2019-04-07T15:07:21.762Z,22.92
2019-04-07T15:09:53.503Z,23.23
2019-04-07T15:12:31.693Z,23.37
2019-04-07T15:14:58.959Z,23.42
2019-04-07T15:17:26.415Z,23.26
2019-04-07T15:19:53.798Z,23.51
2019-04-07T15:22:24.811Z,23.44
2019-04-07T15:24:49.550Z,22.90
2019-04-07T15:27:17.516Z,22.69
2019-04-07T15:29:46.781Z,22.76
2019-04-07T15:32:13.716Z,23.21
2019-04-07T15:34:42.526Z,23.09
2019-04-07T15:37:10.618Z,23.06
2019-04-07T15:39:38.560Z,23.18
2019-04-07T15:42:07.017Z,23.07
2019-04-07T15:44:34.661Z,23.20
2019-04-07T15:47:01.844Z,22.98
2019-04-07T15:49:29.532Z,22.34
2019-04-07T15:51:57.217Z,22.14
2019-04-07T15:54:25.321Z,21.89
2019-04-07T15:56:52.831Z,21.40
2019-04-07T15:59:20.600Z,21.06
2019-04-07T16:01:47.685Z,20.94
2019-04-07T16:04:14.352Z,20.59
2019-04-07T16:06:41.880Z,20.68
2019-04-07T16:09:22.415Z,20.57
2019-04-07T16:11:42.351Z,20.63
2019-04-07T16:14:13.234Z,20.38
2019-04-07T16:16:38.346Z,20.36
2019-04-07T16:19:05.542Z,20.40
2019-04-07T16:21:33.142Z,20.22
2019-04-07T16:24:00.001Z,20.09
2019-04-07T16:26:30.144Z,20.01
2019-04-07T16:28:56.256Z,19.76
2019-04-07T16:31:25.176Z,19.71
2019-04-07T16:33:51.883Z,19.49
2019-04-07T16:36:19.602Z,19.62
2019-04-07T16:38:46.554Z,19.41
2019-04-07T16:41:14.169Z,19.43
2019-04-07T16:43:42.049Z,19.24
2019-04-07T16:46:09.934Z,19.22
2019-04-07T16:48:40.147Z,19.13
2019-04-07T16:51:08.154Z,19.03
2019-04-07T16:53:37.919Z,18.86
2019-04-07T16:56:05.303Z,18.79
2019-04-07T16:58:35.393Z,18.78
2019-04-07T17:01:01.338Z,18.65
2019-04-07T17:03:28.958Z,18.58
2019-04-07T17:05:59.001Z,18.53
2019-04-07T17:08:25.842Z,18.36
2019-04-07T17:10:54.578Z,18.34
2019-04-07T17:13:30.583Z,18.15
2019-04-07T17:15:52.662Z,18.09
2019-04-07T17:18:39.765Z,18.00
2019-04-07T17:21:12.734Z,17.93
2019-04-07T17:23:39.730Z,17.90
2019-04-07T17:26:08.083Z,17.83
2019-04-07T17:28:35.747Z,17.79
2019-04-07T17:31:02.802Z,17.64
2019-04-07T17:33:30.682Z,17.51
2019-04-07T17:35:59.241Z,17.49
2019-04-07T17:38:33.649Z,17.35
2019-04-07T17:41:01.005Z,17.30
2019-04-07T17:43:53.250Z,17.28
2019-04-07T17:46:34.089Z,17.25
2019-04-07T17:49:14.711Z,17.17
2019-04-07T17:52:10.950Z,17.04
2019-04-07T17:54:52.503Z,16.97
2019-04-07T17:57:41.599Z,16.87
2019-04-07T18:00:32.131Z,16.80
2019-04-07T18:03:11.113Z,16.53
2019-04-07T18:06:02.349Z,16.36
2019-04-07T18:09:03.971Z,16.35
2019-04-07T18:12:01.913Z,16.19
2019-04-07T18:14:33.114Z,16.03
2019-04-07T18:17:13.009Z,16.05
2019-04-07T18:19:55.828Z,15.92
2019-04-07T18:22:29.840Z,15.89
2019-04-07T18:25:18.643Z,15.91
2019-04-07T18:28:16.403Z,15.83
2019-04-07T18:31:15.331Z,15.73
2019-04-07T18:33:55.097Z,15.67
2019-04-07T18:36:41.455Z,15.52
2019-04-07T18:39:27.644Z,15.39
2019-04-07T18:42:04.102Z,15.34
2019-04-07T18:44:57.465Z,15.23
2019-04-07T18:47:44.727Z,15.19
2019-04-07T18:50:30.742Z,15.03
2019-04-07T18:53:29.378Z,15.05
2019-04-07T18:56:29.181Z,15.02
2019-04-07T18:59:28.072Z,14.85
2019-04-07T19:02:16.595Z,14.76
2019-04-07T19:05:05.190Z,14.63
2019-04-07T19:07:52.854Z,14.52
2019-04-07T19:10:36.695Z,14.50
2019-04-07T19:13:29.954Z,14.47
2019-04-07T19:16:19.041Z,14.45
2019-04-07T19:18:54.357Z,14.28
2019-04-07T19:21:53.664Z,14.32
2019-04-07T19:24:34.641Z,14.32
2019-04-07T19:27:22.032Z,14.18
2019-04-07T19:30:07.457Z,14.18
2019-04-07T19:32:52.620Z,14.05
2019-04-07T19:35:40.805Z,13.93
2019-04-07T19:38:21.019Z,13.85
2019-04-07T19:41:11.185Z,13.84
2019-04-07T19:43:44.640Z,13.71
2019-04-07T19:46:37.000Z,13.59
2019-04-07T19:49:14.659Z,13.62
2019-04-07T19:51:48.301Z,13.48
2019-04-07T19:54:31.470Z,13.62
2019-04-07T19:57:23.733Z,13.52
2019-04-07T20:00:22.224Z,13.55
2019-04-07T20:02:55.331Z,13.45
2019-04-07T20:05:43.921Z,13.31
2019-04-07T20:08:20.802Z,13.32
2019-04-07T20:11:22.172Z,13.28
2019-04-07T20:14:04.353Z,13.37
2019-04-07T20:16:59.942Z,13.29
2019-04-07T20:19:58.117Z,13.15
2019-04-07T20:22:56.043Z,13.17
2019-04-07T20:25:46.172Z,13.00
2019-04-07T20:28:30.270Z,12.91
2019-04-07T20:31:19.452Z,13.00
2019-04-07T20:34:07.659Z,12.84
2019-04-07T20:36:58.134Z,12.72
2019-04-07T20:39:47.737Z,12.58
2019-04-07T20:42:25.726Z,12.46
2019-04-07T20:45:15.344Z,12.45
2019-04-07T20:48:00.111Z,12.35
2019-04-07T20:50:42.294Z,12.37
2019-04-07T20:53:23.806Z,12.28
2019-04-07T20:56:27.406Z,12.24
2019-04-07T20:59:16.505Z,12.14
2019-04-07T21:02:23.253Z,12.11
2019-04-07T21:05:10.158Z,12.09
2019-04-07T21:07:57.817Z,12.10
2019-04-07T21:10:35.991Z,12.10
2019-04-07T21:13:19.357Z,12.15
2019-04-07T21:16:04.560Z,12.25
2019-04-07T21:18:50.903Z,12.15
2019-04-07T21:21:46.731Z,12.09
2019-04-07T21:24:31.675Z,12.02
2019-04-07T21:27:08.093Z,11.98
2019-04-07T21:30:03.021Z,11.75
2019-04-07T21:32:48.631Z,11.77
2019-04-07T21:35:47.929Z,11.89
2019-04-07T21:38:31.405Z,11.83
2019-04-07T21:41:16.817Z,11.60
2019-04-07T21:44:09.205Z,11.48
2019-04-07T21:46:55.447Z,11.16
2019-04-07T21:49:39.918Z,11.45
2019-04-07T21:52:29.301Z,11.49
2019-04-07T21:55:19.447Z,11.29
2019-04-07T21:57:57.547Z,11.31
2019-04-07T22:00:43.341Z,11.23
2019-04-07T22:03:49.881Z,11.21
2019-04-07T22:06:35.973Z,11.30
2019-04-07T22:09:14.765Z,11.25
2019-04-07T22:11:41.866Z,11.28
2019-04-07T22:14:10.344Z,11.31
2019-04-07T22:16:38.271Z,11.31
2019-04-07T22:19:10.274Z,11.26
2019-04-07T22:21:34.147Z,11.14
2019-04-07T22:24:01.933Z,11.14
2019-04-07T22:26:29.619Z,11.14
2019-04-07T22:28:59.513Z,11.05
2019-04-07T22:31:29.026Z,10.93
2019-04-07T22:33:59.177Z,10.85
2019-04-07T22:36:25.291Z,10.85
2019-04-07T22:38:56.495Z,10.83
2019-04-07T22:41:20.638Z,10.81
2019-04-07T22:43:50.275Z,10.75
2019-04-07T22:46:21.335Z,10.78
2019-04-07T22:48:44.742Z,10.72
2019-04-07T22:51:13.383Z,10.72
2019-04-07T22:53:40.266Z,10.63
2019-04-07T22:56:08.567Z,10.56
2019-04-07T22:58:36.106Z,10.62
2019-04-07T23:01:03.146Z,10.62
2019-04-07T23:03:29.935Z,10.62
2019-04-07T23:05:57.519Z,10.57
2019-04-07T23:08:24.428Z,10.55
2019-04-07T23:10:51.197Z,10.48
2019-04-07T23:13:18.011Z,10.53
2019-04-07T23:15:46.098Z,10.56
2019-04-07T23:18:13.714Z,10.40
2019-04-07T23:20:40.498Z,10.40
2019-04-07T23:23:07.243Z,10.48
2019-04-07T23:25:34.346Z,10.44
2019-04-07T23:28:01.215Z,10.44
2019-04-07T23:30:29.093Z,10.53
2019-04-07T23:32:55.784Z,10.26
2019-04-07T23:35:22.574Z,10.36
2019-04-07T23:37:49.251Z,10.31
2019-04-07T23:40:16.358Z,10.09
2019-04-07T23:42:44.647Z,10.00
2019-04-07T23:45:12.345Z,10.00
2019-04-07T23:47:39.346Z,9.91
2019-04-07T23:50:07.262Z,9.97
2019-04-07T23:52:33.943Z,10.13
2019-04-07T23:55:00.648Z,10.06
2019-04-07T23:57:27.527Z,10.08
2019-04-07T23:59:56.134Z,10.03
